LFRN 221030Z AUTO 03007KT 360V060 6000 NSC 04/M02 Q1019 NOSIG

ElémentsDécodage
LFRN Station météo située sur l'aérodrome de RENNES Saint-Jacques
221030Z émis le 22 du mois à 10h30 UTC
AUTO Bulletin édité par un automate
03007KT vent du 030°, 07 noeuds
360V060 vent de direction variable entre 360° et 060°
6000 visibilité horizontale de 6000 mètres
NSC pas de nuage significatif (pas de nuage <5000ft, pas de CB)
04/M02 température 04°C, point de rosée -02°C
 soit une humidité relative de 65%
Q1019 la pression au niveau de la mer (QNH) est de 1019 hPa
NOSIG Pas de changement significatif prévu au cours des deux heures suivant l'heure de l'observation